Terminal Aerodrome Forecast
Issued by NWS

Home | Current Version | Previous Version | Text Only | Print | Product List | Glossary On
Versions: 1 2 3 4 5 6 7 8 9 10 11 12 13
986
FTUS45 KTFX 262320
TAFHLN
TAF
KHLN 262320Z 2700/2724 VRB05KT P6SM VCTS SCT080CB BKN140
      TEMPO 2700/2701 VRB20G35KT -TSRA BKN070CB
     FM270200 27006KT P6SM SCT090
     FM272100 02006KT P6SM VCTS SCT080CB=

USA.gov is the U.S. government's official web portal to all federal, state and local government web resources and services.